Alice, Texas
Current Conditions -  °F | °C
As of 8:53 PM on Monday 26 Jan 2015 (Local Time) from KALI Reporting Station
Clear Clear  
Wind Chill: 57°   Ceiling: Unl
Heat Index: 57°   Visibility: 10mi
Dew Point: 43°   Wind: 3mph
Humidity: 59%   Direction: 150°SSE
Pressure: 30.22"   Gusts: NA
Location:  27.75°N, 98.06°W
Report Text: KALI 270253Z AUTO 15003KT 10SM CLR 14/06 A3022 RMK AO2 SLP234 T01390061 51013
Loading
Personal Weather Stations






























Interactive Weather Map New forecast layout! Learn more

10-Day Weather Forecast

Advertisements
Track Severe Weather on mobile